sensor_id;sensor_type;location;lat;lon;timestamp;pressure;altitude;pressure_sealevel;temperature;humidity
64025;BME280;50266;57.446;26.936;2022-10-16T00:00:02;99608.78;;;8.41;100.0
64025;BME280;50266;57.446;26.936;2022-10-16T00:01:20;99609.38;;;8.39;100.0
64025;BME280;50266;57.446;26.936;2022-10-16T00:02:06;99602.62;;;8.36;100.0
64025;BME280;50266;57.446;26.936;2022-10-16T00:03:07;99609.5;;;8.39;100.0
64025;BME280;50266;57.446;26.936;2022-10-16T00:04:07;99603.35;;;8.33;100.0
64025;BME280;50266;57.446;26.936;2022-10-16T00:05:07;99607.58;;;8.39;100.0
64025;BME280;50266;57.446;26.936;2022-10-16T00:06:07;99606.77;;;8.41;100.0
64025;BME280;50266;57.446;26.936;2022-10-16T00:07:07;99600.91;;;8.29;100.0
64025;BME280;50266;57.446;26.936;2022-10-16T00:08:07;99605.59;;;8.22;100.0
64025;BME280;50266;57.446;26.936;2022-10-16T00:09:07;99608.9;;;8.19;100.0
64025;BME280;50266;57.446;26.936;2022-10-16T00:10:07;99604.88;;;8.24;100.0
64025;BME280;50266;57.446;26.936;2022-10-16T00:11:11;99607.35;;;8.18;100.0
64025;BME280;50266;57.446;26.936;2022-10-16T00:12:08;99607.49;;;8.21;100.0
64025;BME280;50266;57.446;26.936;2022-10-16T00:13:08;99603.6;;;8.28;100.0
64025;BME280;50266;57.446;26.936;2022-10-16T00:14:09;99609.41;;;8.24;100.0
64025;BME280;50266;57.446;26.936;2022-10-16T00:15:08;99604.33;;;8.34;100.0
64025;BME280;50266;57.446;26.936;2022-10-16T00:16:08;99605.52;;;8.28;100.0
64025;BME280;50266;57.446;26.936;2022-10-16T00:17:08;99604.16;;;8.23;100.0
64025;BME280;50266;57.446;26.936;2022-10-16T00:18:08;99609.67;;;8.24;100.0
64025;BME280;50266;57.446;26.936;2022-10-16T00:19:09;99612.44;;;8.25;100.0
64025;BME280;50266;57.446;26.936;2022-10-16T00:20:08;99609.24;;;8.24;100.0
64025;BME280;50266;57.446;26.936;2022-10-16T00:21:12;99610.33;;;8.21;100.0
64025;BME280;50266;57.446;26.936;2022-10-16T00:22:09;99612.56;;;8.26;100.0
64025;BME280;50266;57.446;26.936;2022-10-16T00:23:09;99612.07;;;8.26;100.0
64025;BME280;50266;57.446;26.936;2022-10-16T00:24:09;99611.59;;;8.26;100.0
64025;BME280;50266;57.446;26.936;2022-10-16T00:25:09;99613.48;;;8.24;100.0
64025;BME280;50266;57.446;26.936;2022-10-16T00:26:11;99611.84;;;8.23;100.0
64025;BME280;50266;57.446;26.936;2022-10-16T00:27:09;99611.88;;;8.28;100.0
64025;BME280;50266;57.446;26.936;2022-10-16T00:28:09;99613.41;;;8.31;100.0
64025;BME280;50266;57.446;26.936;2022-10-16T00:29:10;99611.23;;;8.24;100.0
64025;BME280;50266;57.446;26.936;2022-10-16T00:30:10;99613.86;;;8.28;100.0
64025;BME280;50266;57.446;26.936;2022-10-16T00:31:10;99613.0;;;8.34;100.0
64025;BME280;50266;57.446;26.936;2022-10-16T00:32:10;99613.56;;;8.35;100.0
64025;BME280;50266;57.446;26.936;2022-10-16T00:33:10;99611.61;;;8.32;100.0
64025;BME280;50266;57.446;26.936;2022-10-16T00:34:10;99608.03;;;8.35;100.0
64025;BME280;50266;57.446;26.936;2022-10-16T00:35:10;99608.88;;;8.34;100.0
64025;BME280;50266;57.446;26.936;2022-10-16T00:36:11;99610.08;;;8.29;100.0
64025;BME280;50266;57.446;26.936;2022-10-16T00:37:10;99607.72;;;8.26;100.0
64025;BME280;50266;57.446;26.936;2022-10-16T00:38:10;99609.02;;;8.23;100.0
64025;BME280;50266;57.446;26.936;2022-10-16T00:39:10;99611.7;;;8.26;100.0
64025;BME280;50266;57.446;26.936;2022-10-16T00:40:10;99609.08;;;8.27;100.0
64025;BME280;50266;57.446;26.936;2022-10-16T00:41:14;99611.59;;;8.26;100.0
64025;BME280;50266;57.446;26.936;2022-10-16T00:42:17;99613.39;;;8.29;100.0
64025;BME280;50266;57.446;26.936;2022-10-16T00:43:32;99609.61;;;8.32;100.0
64025;BME280;50266;57.446;26.936;2022-10-16T00:45:23;99611.61;;;8.31;100.0
64025;BME280;50266;57.446;26.936;2022-10-16T00:46:25;99615.73;;;8.32;100.0
64025;BME280;50266;57.446;26.936;2022-10-16T00:47:34;99610.63;;;8.36;100.0
64025;BME280;50266;57.446;26.936;2022-10-16T00:48:28;99618.84;;;8.3;100.0
64025;BME280;50266;57.446;26.936;2022-10-16T00:49:28;99620.23;;;8.3;100.0
64025;BME280;50266;57.446;26.936;2022-10-16T00:50:29;99618.53;;;8.27;100.0
64025;BME280;50266;57.446;26.936;2022-10-16T00:51:30;99622.67;;;8.31;100.0
64025;BME280;50266;57.446;26.936;2022-10-16T00:52:28;99613.14;;;8.36;100.0
64025;BME280;50266;57.446;26.936;2022-10-16T00:53:33;99616.39;;;8.38;100.0
64025;BME280;50266;57.446;26.936;2022-10-16T00:54:30;99615.84;;;8.3;100.0
64025;BME280;50266;57.446;26.936;2022-10-16T00:55:30;99616.63;;;8.29;100.0
64025;BME280;50266;57.446;26.936;2022-10-16T00:56:31;99612.47;;;8.28;100.0
64025;BME280;50266;57.446;26.936;2022-10-16T00:57:30;99607.59;;;8.26;100.0
64025;BME280;50266;57.446;26.936;2022-10-16T00:58:30;99612.59;;;8.29;100.0
64025;BME280;50266;57.446;26.936;2022-10-16T00:59:34;99614.51;;;8.23;100.0
64025;BME280;50266;57.446;26.936;2022-10-16T01:00:31;99614.43;;;8.28;100.0
64025;BME280;50266;57.446;26.936;2022-10-16T01:01:31;99613.64;;;8.33;100.0
64025;BME280;50266;57.446;26.936;2022-10-16T01:02:31;99612.65;;;8.33;100.0
64025;BME280;50266;57.446;26.936;2022-10-16T01:03:33;99610.66;;;8.3;100.0
64025;BME280;50266;57.446;26.936;2022-10-16T01:04:35;99615.97;;;8.32;100.0
64025;BME280;50266;57.446;26.936;2022-10-16T01:05:39;99610.65;;;8.35;100.0
64025;BME280;50266;57.446;26.936;2022-10-16T01:08:49;99617.94;;;8.39;100.0
64025;BME280;50266;57.446;26.936;2022-10-16T01:10:48;99619.28;;;8.38;100.0
64025;BME280;50266;57.446;26.936;2022-10-16T01:12:59;99614.58;;;8.41;100.0
64025;BME280;50266;57.446;26.936;2022-10-16T01:13:53;99619.98;;;8.43;100.0
64025;BME280;50266;57.446;26.936;2022-10-16T01:15:59;99615.97;;;8.41;100.0
64025;BME280;50266;57.446;26.936;2022-10-16T01:16:55;99613.69;;;8.47;100.0
64025;BME280;50266;57.446;26.936;2022-10-16T01:17:58;99609.5;;;8.46;100.0
64025;BME280;50266;57.446;26.936;2022-10-16T01:19:02;99610.78;;;8.46;100.0
64025;BME280;50266;57.446;26.936;2022-10-16T01:20:10;99609.56;;;8.45;100.0
64025;BME280;50266;57.446;26.936;2022-10-16T01:22:04;99615.83;;;8.48;100.0
64025;BME280;50266;57.446;26.936;2022-10-16T01:24:08;99612.46;;;8.44;100.0
64025;BME280;50266;57.446;26.936;2022-10-16T01:25:09;99611.48;;;8.46;100.0
64025;BME280;50266;57.446;26.936;2022-10-16T01:27:09;99614.91;;;8.41;100.0
64025;BME280;50266;57.446;26.936;2022-10-16T01:28:08;99612.19;;;8.42;100.0
64025;BME280;50266;57.446;26.936;2022-10-16T01:29:17;99609.79;;;8.4;100.0
64025;BME280;50266;57.446;26.936;2022-10-16T01:30:10;99610.38;;;8.4;100.0
64025;BME280;50266;57.446;26.936;2022-10-16T01:31:09;99612.92;;;8.49;100.0
64025;BME280;50266;57.446;26.936;2022-10-16T01:33:19;99605.66;;;8.48;100.0
64025;BME280;50266;57.446;26.936;2022-10-16T01:34:18;99607.38;;;8.48;100.0
64025;BME280;50266;57.446;26.936;2022-10-16T01:35:26;99606.2;;;8.47;100.0
64025;BME280;50266;57.446;26.936;2022-10-16T01:36:23;99607.2;;;8.49;100.0
64025;BME280;50266;57.446;26.936;2022-10-16T01:37:29;99606.17;;;8.47;100.0
64025;BME280;50266;57.446;26.936;2022-10-16T01:38:25;99602.35;;;8.45;100.0
64025;BME280;50266;57.446;26.936;2022-10-16T01:39:28;99603.47;;;8.46;100.0
64025;BME280;50266;57.446;26.936;2022-10-16T01:40:26;99609.17;;;8.47;100.0
64025;BME280;50266;57.446;26.936;2022-10-16T01:41:33;99604.69;;;8.49;100.0
64025;BME280;50266;57.446;26.936;2022-10-16T01:42:28;99601.88;;;8.54;100.0
64025;BME280;50266;57.446;26.936;2022-10-16T01:43:31;99599.7;;;8.51;100.0
64025;BME280;50266;57.446;26.936;2022-10-16T01:44:30;99603.78;;;8.52;100.0
64025;BME280;50266;57.446;26.936;2022-10-16T01:45:30;99600.8;;;8.47;100.0
64025;BME280;50266;57.446;26.936;2022-10-16T01:46:30;99605.16;;;8.51;100.0
64025;BME280;50266;57.446;26.936;2022-10-16T01:47:30;99603.91;;;8.56;100.0
64025;BME280;50266;57.446;26.936;2022-10-16T01:48:29;99604.39;;;8.54;100.0
64025;BME280;50266;57.446;26.936;2022-10-16T01:49:31;99603.3;;;8.57;100.0
64025;BME280;50266;57.446;26.936;2022-10-16T01:50:30;99593.14;;;8.56;100.0
64025;BME280;50266;57.446;26.936;2022-10-16T01:51:30;99599.14;;;8.56;100.0
64025;BME280;50266;57.446;26.936;2022-10-16T01:52:30;99597.69;;;8.56;100.0
64025;BME280;50266;57.446;26.936;2022-10-16T01:53:30;99595.7;;;8.53;100.0
64025;BME280;50266;57.446;26.936;2022-10-16T01:54:30;99592.86;;;8.52;100.0
64025;BME280;50266;57.446;26.936;2022-10-16T01:55:31;99599.37;;;8.53;100.0
64025;BME280;50266;57.446;26.936;2022-10-16T01:56:30;99602.75;;;8.56;100.0
64025;BME280;50266;57.446;26.936;2022-10-16T01:57:30;99598.02;;;8.56;100.0
64025;BME280;50266;57.446;26.936;2022-10-16T01:58:30;99596.2;;;8.49;100.0
64025;BME280;50266;57.446;26.936;2022-10-16T01:59:30;99593.28;;;8.5;100.0
64025;BME280;50266;57.446;26.936;2022-10-16T02:00:30;99599.64;;;8.52;100.0
64025;BME280;50266;57.446;26.936;2022-10-16T02:01:31;99597.09;;;8.47;100.0
64025;BME280;50266;57.446;26.936;2022-10-16T02:02:30;99595.12;;;8.49;100.0
64025;BME280;50266;57.446;26.936;2022-10-16T02:03:30;99591.85;;;8.45;100.0
64025;BME280;50266;57.446;26.936;2022-10-16T02:04:34;99593.7;;;8.49;100.0
64025;BME280;50266;57.446;26.936;2022-10-16T02:05:42;99584.52;;;8.49;100.0
64025;BME280;50266;57.446;26.936;2022-10-16T02:06:36;99591.48;;;8.43;100.0
64025;BME280;50266;57.446;26.936;2022-10-16T02:07:36;99597.41;;;8.39;100.0
64025;BME280;50266;57.446;26.936;2022-10-16T02:08:36;99591.8;;;8.38;100.0
64025;BME280;50266;57.446;26.936;2022-10-16T02:09:36;99594.02;;;8.41;100.0
64025;BME280;50266;57.446;26.936;2022-10-16T02:10:36;99595.75;;;8.41;100.0
64025;BME280;50266;57.446;26.936;2022-10-16T02:11:36;99590.49;;;8.37;100.0
64025;BME280;50266;57.446;26.936;2022-10-16T02:12:37;99594.97;;;8.34;100.0
64025;BME280;50266;57.446;26.936;2022-10-16T02:13:44;99593.57;;;8.32;100.0
64025;BME280;50266;57.446;26.936;2022-10-16T02:14:37;99590.72;;;8.26;100.0
64025;BME280;50266;57.446;26.936;2022-10-16T02:15:37;99589.73;;;8.23;100.0
64025;BME280;50266;57.446;26.936;2022-10-16T02:16:38;99591.3;;;8.24;100.0
64025;BME280;50266;57.446;26.936;2022-10-16T02:17:37;99587.03;;;8.25;100.0
64025;BME280;50266;57.446;26.936;2022-10-16T02:18:37;99588.55;;;8.22;100.0
64025;BME280;50266;57.446;26.936;2022-10-16T02:19:37;99593.61;;;8.19;100.0
64025;BME280;50266;57.446;26.936;2022-10-16T02:20:40;99595.26;;;8.19;100.0
64025;BME280;50266;57.446;26.936;2022-10-16T02:21:43;99586.68;;;8.26;100.0
64025;BME280;50266;57.446;26.936;2022-10-16T02:22:45;99589.85;;;8.2;100.0
64025;BME280;50266;57.446;26.936;2022-10-16T02:24:48;99591.67;;;8.33;100.0
64025;BME280;50266;57.446;26.936;2022-10-16T02:25:48;99590.98;;;8.32;100.0
64025;BME280;50266;57.446;26.936;2022-10-16T02:27:07;99596.63;;;8.33;100.0
64025;BME280;50266;57.446;26.936;2022-10-16T02:27:55;99599.01;;;8.27;100.0
64025;BME280;50266;57.446;26.936;2022-10-16T02:28:54;99594.3;;;8.23;100.0
64025;BME280;50266;57.446;26.936;2022-10-16T02:29:54;99589.31;;;8.21;100.0
64025;BME280;50266;57.446;26.936;2022-10-16T02:30:58;99589.31;;;8.21;100.0
64025;BME280;50266;57.446;26.936;2022-10-16T02:31:58;99587.3;;;8.21;100.0
64025;BME280;50266;57.446;26.936;2022-10-16T02:32:56;99592.25;;;8.19;100.0
64025;BME280;50266;57.446;26.936;2022-10-16T02:33:57;99584.84;;;8.18;100.0
64025;BME280;50266;57.446;26.936;2022-10-16T02:34:56;99581.73;;;8.13;100.0
64025;BME280;50266;57.446;26.936;2022-10-16T02:35:56;99587.11;;;8.17;100.0
64025;BME280;50266;57.446;26.936;2022-10-16T02:36:56;99581.91;;;8.14;100.0
64025;BME280;50266;57.446;26.936;2022-10-16T02:37:57;99582.95;;;8.14;100.0
64025;BME280;50266;57.446;26.936;2022-10-16T02:38:56;99580.81;;;8.15;100.0
64025;BME280;50266;57.446;26.936;2022-10-16T02:39:56;99585.45;;;8.14;100.0
64025;BME280;50266;57.446;26.936;2022-10-16T02:40:56;99586.89;;;8.13;100.0
64025;BME280;50266;57.446;26.936;2022-10-16T02:41:56;99580.67;;;8.13;100.0
64025;BME280;50266;57.446;26.936;2022-10-16T02:42:56;99578.03;;;8.09;100.0
64025;BME280;50266;57.446;26.936;2022-10-16T02:43:56;99586.39;;;8.16;100.0
64025;BME280;50266;57.446;26.936;2022-10-16T02:44:56;99584.12;;;8.18;100.0
64025;BME280;50266;57.446;26.936;2022-10-16T02:45:56;99576.38;;;8.15;100.0
64025;BME280;50266;57.446;26.936;2022-10-16T02:46:56;99577.5;;;8.18;100.0
64025;BME280;50266;57.446;26.936;2022-10-16T02:47:56;99575.7;;;8.14;100.0
64025;BME280;50266;57.446;26.936;2022-10-16T02:48:56;99577.43;;;8.13;100.0
64025;BME280;50266;57.446;26.936;2022-10-16T02:49:56;99577.91;;;8.11;100.0
64025;BME280;50266;57.446;26.936;2022-10-16T02:50:56;99562.17;;;8.13;100.0
64025;BME280;50266;57.446;26.936;2022-10-16T02:51:56;99565.38;;;8.19;100.0
64025;BME280;50266;57.446;26.936;2022-10-16T02:52:56;99566.31;;;8.21;100.0
64025;BME280;50266;57.446;26.936;2022-10-16T02:53:57;99559.84;;;8.25;100.0
64025;BME280;50266;57.446;26.936;2022-10-16T02:54:57;99555.73;;;8.21;100.0
64025;BME280;50266;57.446;26.936;2022-10-16T02:55:57;99570.19;;;8.27;100.0
64025;BME280;50266;57.446;26.936;2022-10-16T02:56:57;99559.03;;;8.18;100.0
64025;BME280;50266;57.446;26.936;2022-10-16T02:57:57;99555.73;;;8.21;100.0
64025;BME280;50266;57.446;26.936;2022-10-16T02:58:57;99553.34;;;8.18;100.0
64025;BME280;50266;57.446;26.936;2022-10-16T02:59:57;99552.28;;;8.26;100.0
64025;BME280;50266;57.446;26.936;2022-10-16T03:00:57;99556.69;;;8.24;100.0
64025;BME280;50266;57.446;26.936;2022-10-16T03:01:57;99550.62;;;8.22;100.0
64025;BME280;50266;57.446;26.936;2022-10-16T03:02:57;99555.02;;;8.25;100.0
64025;BME280;50266;57.446;26.936;2022-10-16T03:03:57;99552.77;;;8.22;100.0
64025;BME280;50266;57.446;26.936;2022-10-16T03:04:57;99554.4;;;8.24;100.0
64025;BME280;50266;57.446;26.936;2022-10-16T03:05:57;99548.91;;;8.21;100.0
64025;BME280;50266;57.446;26.936;2022-10-16T03:06:57;99561.93;;;8.23;100.0
64025;BME280;50266;57.446;26.936;2022-10-16T03:07:57;99556.22;;;8.24;100.0
64025;BME280;50266;57.446;26.936;2022-10-16T03:08:57;99559.84;;;8.25;100.0
64025;BME280;50266;57.446;26.936;2022-10-16T03:09:57;99561.57;;;8.22;100.0
64025;BME280;50266;57.446;26.936;2022-10-16T03:10:57;99558.15;;;8.23;100.0
64025;BME280;50266;57.446;26.936;2022-10-16T03:11:57;99559.09;;;8.22;100.0
64025;BME280;50266;57.446;26.936;2022-10-16T03:12:57;99561.7;;;8.2;100.0
64025;BME280;50266;57.446;26.936;2022-10-16T03:13:57;99557.28;;;8.21;100.0
64025;BME280;50266;57.446;26.936;2022-10-16T03:14:57;99562.56;;;8.25;100.0
64025;BME280;50266;57.446;26.936;2022-10-16T03:15:57;99556.77;;;8.25;100.0
64025;BME280;50266;57.446;26.936;2022-10-16T03:16:57;99554.83;;;8.24;100.0
64025;BME280;50266;57.446;26.936;2022-10-16T03:17:57;99558.85;;;8.25;100.0
64025;BME280;50266;57.446;26.936;2022-10-16T03:18:57;99556.33;;;8.34;100.0
64025;BME280;50266;57.446;26.936;2022-10-16T03:19:57;99561.38;;;8.31;100.0
64025;BME280;50266;57.446;26.936;2022-10-16T03:20:57;99562.97;;;8.33;100.0
64025;BME280;50266;57.446;26.936;2022-10-16T03:21:57;99561.84;;;8.33;100.0
64025;BME280;50266;57.446;26.936;2022-10-16T03:22:57;99564.84;;;8.31;100.0
64025;BME280;50266;57.446;26.936;2022-10-16T03:23:57;99567.23;;;8.31;100.0
64025;BME280;50266;57.446;26.936;2022-10-16T03:24:57;99560.8;;;8.29;100.0
64025;BME280;50266;57.446;26.936;2022-10-16T03:25:57;99558.84;;;8.27;100.0
64025;BME280;50266;57.446;26.936;2022-10-16T03:26:57;99566.19;;;8.32;100.0
64025;BME280;50266;57.446;26.936;2022-10-16T03:27:57;99562.86;;;8.31;100.0
64025;BME280;50266;57.446;26.936;2022-10-16T03:28:57;99562.16;;;8.28;100.0
64025;BME280;50266;57.446;26.936;2022-10-16T03:29:57;99563.34;;;8.32;100.0
64025;BME280;50266;57.446;26.936;2022-10-16T03:30:57;99555.98;;;8.3;100.0
64025;BME280;50266;57.446;26.936;2022-10-16T03:31:57;99557.52;;;8.28;100.0
64025;BME280;50266;57.446;26.936;2022-10-16T03:32:57;99560.39;;;8.33;100.0
64025;BME280;50266;57.446;26.936;2022-10-16T03:33:57;99559.42;;;8.33;100.0
64025;BME280;50266;57.446;26.936;2022-10-16T03:34:57;99560.61;;;8.31;100.0
64025;BME280;50266;57.446;26.936;2022-10-16T03:35:58;99556.56;;;8.34;100.0
64025;BME280;50266;57.446;26.936;2022-10-16T03:36:57;99555.09;;;8.33;100.0
64025;BME280;50266;57.446;26.936;2022-10-16T03:37:58;99550.2;;;8.32;100.0
64025;BME280;50266;57.446;26.936;2022-10-16T03:38:57;99558.81;;;8.32;100.0
64025;BME280;50266;57.446;26.936;2022-10-16T03:39:58;99554.84;;;8.34;100.0
64025;BME280;50266;57.446;26.936;2022-10-16T03:40:58;99550.98;;;8.38;100.0
64025;BME280;50266;57.446;26.936;2022-10-16T03:41:58;99551.55;;;8.41;100.0
64025;BME280;50266;57.446;26.936;2022-10-16T03:42:58;99551.5;;;8.36;100.0
64025;BME280;50266;57.446;26.936;2022-10-16T03:43:58;99551.32;;;8.38;100.0
64025;BME280;50266;57.446;26.936;2022-10-16T03:44:58;99551.67;;;8.38;100.0
64025;BME280;50266;57.446;26.936;2022-10-16T03:45:58;99550.2;;;8.37;100.0
64025;BME280;50266;57.446;26.936;2022-10-16T03:46:58;99550.38;;;8.39;100.0
64025;BME280;50266;57.446;26.936;2022-10-16T03:47:58;99549.88;;;8.39;100.0
64025;BME280;50266;57.446;26.936;2022-10-16T03:48:58;99553.65;;;8.4;100.0
64025;BME280;50266;57.446;26.936;2022-10-16T03:49:58;99552.83;;;8.4;100.0
64025;BME280;50266;57.446;26.936;2022-10-16T03:50:58;99558.88;;;8.43;100.0
64025;BME280;50266;57.446;26.936;2022-10-16T03:51:58;99552.02;;;8.43;100.0
64025;BME280;50266;57.446;26.936;2022-10-16T03:52:58;99558.04;;;8.46;100.0
64025;BME280;50266;57.446;26.936;2022-10-16T03:53:58;99553.98;;;8.43;100.0
64025;BME280;50266;57.446;26.936;2022-10-16T03:54:58;99555.0;;;8.4;100.0
64025;BME280;50266;57.446;26.936;2022-10-16T03:55:58;99561.33;;;8.42;100.0
64025;BME280;50266;57.446;26.936;2022-10-16T03:56:58;99554.11;;;8.4;100.0
64025;BME280;50266;57.446;26.936;2022-10-16T03:57:58;99555.27;;;8.42;100.0
64025;BME280;50266;57.446;26.936;2022-10-16T03:58:58;99553.73;;;8.44;100.0
64025;BME280;50266;57.446;26.936;2022-10-16T03:59:58;99553.19;;;8.42;100.0
64025;BME280;50266;57.446;26.936;2022-10-16T04:00:58;99552.17;;;8.41;100.0
64025;BME280;50266;57.446;26.936;2022-10-16T04:01:58;99556.55;;;8.41;100.0
64025;BME280;50266;57.446;26.936;2022-10-16T04:02:58;99552.31;;;8.38;100.0
64025;BME280;50266;57.446;26.936;2022-10-16T04:03:58;99553.8;;;8.38;100.0
64025;BME280;50266;57.446;26.936;2022-10-16T04:04:58;99552.27;;;8.39;100.0
64025;BME280;50266;57.446;26.936;2022-10-16T04:05:58;99552.58;;;8.43;100.0
64025;BME280;50266;57.446;26.936;2022-10-16T04:06:58;99551.33;;;8.4;100.0
64025;BME280;50266;57.446;26.936;2022-10-16T04:07:58;99555.56;;;8.4;100.0
64025;BME280;50266;57.446;26.936;2022-10-16T04:08:58;99556.67;;;8.39;100.0
64025;BME280;50266;57.446;26.936;2022-10-16T04:09:58;99555.95;;;8.41;100.0
64025;BME280;50266;57.446;26.936;2022-10-16T04:10:58;99554.16;;;8.41;100.0
64025;BME280;50266;57.446;26.936;2022-10-16T04:11:58;99555.05;;;8.41;100.0
64025;BME280;50266;57.446;26.936;2022-10-16T04:12:58;99555.56;;;8.4;100.0
64025;BME280;50266;57.446;26.936;2022-10-16T04:13:58;99556.83;;;8.42;100.0
64025;BME280;50266;57.446;26.936;2022-10-16T04:14:58;99552.14;;;8.44;100.0
64025;BME280;50266;57.446;26.936;2022-10-16T04:15:58;99552.73;;;8.44;100.0
64025;BME280;50266;57.446;26.936;2022-10-16T04:16:58;99553.64;;;8.46;100.0
64025;BME280;50266;57.446;26.936;2022-10-16T04:17:58;99551.72;;;8.41;100.0
64025;BME280;50266;57.446;26.936;2022-10-16T04:18:58;99553.13;;;8.44;100.0
64025;BME280;50266;57.446;26.936;2022-10-16T04:19:58;99557.02;;;8.42;100.0
64025;BME280;50266;57.446;26.936;2022-10-16T04:21:02;99558.27;;;8.44;100.0
64025;BME280;50266;57.446;26.936;2022-10-16T04:21:58;99557.32;;;8.45;100.0
64025;BME280;50266;57.446;26.936;2022-10-16T04:22:58;99554.77;;;8.45;100.0
64025;BME280;50266;57.446;26.936;2022-10-16T04:23:58;99552.7;;;8.44;100.0
64025;BME280;50266;57.446;26.936;2022-10-16T04:24:58;99549.86;;;8.43;100.0
64025;BME280;50266;57.446;26.936;2022-10-16T04:25:58;99548.28;;;8.45;100.0
64025;BME280;50266;57.446;26.936;2022-10-16T04:26:58;99551.9;;;8.47;100.0
64025;BME280;50266;57.446;26.936;2022-10-16T04:27:58;99554.41;;;8.48;100.0
64025;BME280;50266;57.446;26.936;2022-10-16T04:28:58;99552.36;;;8.5;100.0
64025;BME280;50266;57.446;26.936;2022-10-16T04:29:59;99547.18;;;8.49;100.0
64025;BME280;50266;57.446;26.936;2022-10-16T04:30:58;99551.12;;;8.51;100.0
64025;BME280;50266;57.446;26.936;2022-10-16T04:31:58;99552.47;;;8.52;100.0
64025;BME280;50266;57.446;26.936;2022-10-16T04:32:58;99554.95;;;8.52;100.0
64025;BME280;50266;57.446;26.936;2022-10-16T04:33:58;99557.19;;;8.56;100.0
64025;BME280;50266;57.446;26.936;2022-10-16T04:34:58;99553.02;;;8.55;100.0
64025;BME280;50266;57.446;26.936;2022-10-16T04:35:59;99546.78;;;8.56;100.0
64025;BME280;50266;57.446;26.936;2022-10-16T04:36:58;99552.63;;;8.57;100.0
64025;BME280;50266;57.446;26.936;2022-10-16T04:37:59;99550.55;;;8.57;100.0
64025;BME280;50266;57.446;26.936;2022-10-16T04:38:58;99549.66;;;8.62;100.0
64025;BME280;50266;57.446;26.936;2022-10-16T04:39:59;99552.82;;;8.66;100.0
64025;BME280;50266;57.446;26.936;2022-10-16T04:40:59;99554.73;;;8.66;100.0
64025;BME280;50266;57.446;26.936;2022-10-16T04:41:59;99551.7;;;8.63;100.0
64025;BME280;50266;57.446;26.936;2022-10-16T04:42:59;99547.55;;;8.73;100.0
64025;BME280;50266;57.446;26.936;2022-10-16T04:43:59;99542.06;;;8.74;100.0
64025;BME280;50266;57.446;26.936;2022-10-16T04:44:59;99546.06;;;8.78;100.0
64025;BME280;50266;57.446;26.936;2022-10-16T04:45:59;99548.0;;;8.79;100.0
64025;BME280;50266;57.446;26.936;2022-10-16T04:46:59;99543.4;;;8.76;100.0
64025;BME280;50266;57.446;26.936;2022-10-16T04:47:59;99542.03;;;8.77;100.0
64025;BME280;50266;57.446;26.936;2022-10-16T04:48:59;99535.66;;;8.75;100.0
64025;BME280;50266;57.446;26.936;2022-10-16T04:49:59;99545.74;;;8.77;100.0
64025;BME280;50266;57.446;26.936;2022-10-16T04:50:59;99543.2;;;8.81;100.0
64025;BME280;50266;57.446;26.936;2022-10-16T04:51:59;99543.75;;;8.82;100.0
64025;BME280;50266;57.446;26.936;2022-10-16T04:52:59;99539.11;;;8.82;100.0
64025;BME280;50266;57.446;26.936;2022-10-16T04:53:59;99543.78;;;8.77;100.0
64025;BME280;50266;57.446;26.936;2022-10-16T04:54:59;99535.75;;;8.79;100.0
64025;BME280;50266;57.446;26.936;2022-10-16T04:55:59;99544.07;;;8.78;100.0
64025;BME280;50266;57.446;26.936;2022-10-16T04:56:59;99542.89;;;8.79;100.0
64025;BME280;50266;57.446;26.936;2022-10-16T04:57:59;99545.8;;;8.78;100.0
64025;BME280;50266;57.446;26.936;2022-10-16T04:58:59;99543.44;;;8.75;100.0
64025;BME280;50266;57.446;26.936;2022-10-16T04:59:59;99539.73;;;8.76;100.0
64025;BME280;50266;57.446;26.936;2022-10-16T05:00:59;99536.8;;;8.75;100.0
64025;BME280;50266;57.446;26.936;2022-10-16T05:01:59;99540.62;;;8.71;100.0
64025;BME280;50266;57.446;26.936;2022-10-16T05:02:59;99544.41;;;8.75;100.0
64025;BME280;50266;57.446;26.936;2022-10-16T05:03:59;99544.24;;;8.73;100.0
64025;BME280;50266;57.446;26.936;2022-10-16T05:04:59;99538.95;;;8.7;100.0
64025;BME280;50266;57.446;26.936;2022-10-16T05:05:59;99546.16;;;8.73;100.0
64025;BME280;50266;57.446;26.936;2022-10-16T05:06:59;99556.07;;;8.72;100.0
64025;BME280;50266;57.446;26.936;2022-10-16T05:07:59;99551.2;;;8.75;100.0
64025;BME280;50266;57.446;26.936;2022-10-16T05:08:59;99547.4;;;8.77;100.0
64025;BME280;50266;57.446;26.936;2022-10-16T05:09:59;99545.04;;;8.77;100.0
64025;BME280;50266;57.446;26.936;2022-10-16T05:10:59;99548.47;;;8.76;100.0
64025;BME280;50266;57.446;26.936;2022-10-16T05:11:59;99551.91;;;8.76;100.0
64025;BME280;50266;57.446;26.936;2022-10-16T05:12:59;99548.77;;;8.76;100.0
64025;BME280;50266;57.446;26.936;2022-10-16T05:13:59;99549.14;;;8.75;100.0
64025;BME280;50266;57.446;26.936;2022-10-16T05:14:59;99549.16;;;8.79;100.0
64025;BME280;50266;57.446;26.936;2022-10-16T05:15:59;99547.09;;;8.77;100.0
64025;BME280;50266;57.446;26.936;2022-10-16T05:16:59;99547.39;;;8.8;100.0
64025;BME280;50266;57.446;26.936;2022-10-16T05:17:59;99546.55;;;8.83;100.0
64025;BME280;50266;57.446;26.936;2022-10-16T05:18:59;99544.42;;;8.83;100.0
64025;BME280;50266;57.446;26.936;2022-10-16T05:20:00;99545.86;;;8.82;100.0
64025;BME280;50266;57.446;26.936;2022-10-16T05:21:00;99550.45;;;8.83;100.0
64025;BME280;50266;57.446;26.936;2022-10-16T05:22:00;99545.19;;;8.84;100.0
64025;BME280;50266;57.446;26.936;2022-10-16T05:23:00;99552.56;;;8.82;100.0
64025;BME280;50266;57.446;26.936;2022-10-16T05:24:00;99550.02;;;8.81;100.0
64025;BME280;50266;57.446;26.936;2022-10-16T05:25:00;99551.12;;;8.8;100.0
64025;BME280;50266;57.446;26.936;2022-10-16T05:26:00;99554.05;;;8.84;100.0
64025;BME280;50266;57.446;26.936;2022-10-16T05:27:00;99552.09;;;8.84;100.0
64025;BME280;50266;57.446;26.936;2022-10-16T05:28:00;99551.48;;;8.85;100.0
64025;BME280;50266;57.446;26.936;2022-10-16T05:29:00;99553.56;;;8.86;100.0
64025;BME280;50266;57.446;26.936;2022-10-16T05:30:00;99551.95;;;8.88;100.0
64025;BME280;50266;57.446;26.936;2022-10-16T05:31:04;99561.88;;;8.91;100.0